createdAt,value
2023-01-04T00:01:23.086Z,93.76
2023-01-04T00:03:50.144Z,93.89
2023-01-04T00:06:17.352Z,94.23
2023-01-04T00:08:46.184Z,94.38
2023-01-04T00:11:18.183Z,94.57
2023-01-04T00:13:45.963Z,94.67
2023-01-04T00:16:15.564Z,94.53
2023-01-04T00:18:45.487Z,94.58
2023-01-04T00:21:17.408Z,95.08
2023-01-04T00:23:46.631Z,94.58
2023-01-04T00:26:16.134Z,94.80
2023-01-04T00:28:48.437Z,95.47
2023-01-04T00:31:18.623Z,94.85
2023-01-04T00:33:45.256Z,95.08
2023-01-04T00:36:14.323Z,95.58
2023-01-04T00:38:42.193Z,95.85
2023-01-04T00:41:18.934Z,95.39
2023-01-04T00:43:57.300Z,95.44
2023-01-04T00:46:23.895Z,95.79
2023-01-04T00:48:52.781Z,95.58
2023-01-04T00:51:21.905Z,95.93
2023-01-04T00:53:48.480Z,95.76
2023-01-04T00:56:15.088Z,95.79
2023-01-04T00:58:41.703Z,96.08
2023-01-04T01:01:08.928Z,96.38
2023-01-04T01:03:38.812Z,96.52
2023-01-04T01:06:07.963Z,96.37
2023-01-04T01:08:36.070Z,96.59
2023-01-04T01:11:07.651Z,96.28
2023-01-04T01:13:35.722Z,96.52
2023-01-04T01:16:07.428Z,96.50
2023-01-04T01:18:34.844Z,96.44
2023-01-04T01:21:05.508Z,96.62
2023-01-04T01:23:34.318Z,96.92
2023-01-04T01:26:02.237Z,96.72
2023-01-04T01:28:29.139Z,96.91
2023-01-04T01:30:56.010Z,96.83
2023-01-04T01:33:22.548Z,97.03
2023-01-04T01:35:49.100Z,97.49
2023-01-04T01:38:16.948Z,97.00
2023-01-04T01:40:44.900Z,97.43
2023-01-04T01:43:23.208Z,97.37
2023-01-04T01:45:57.203Z,97.57
2023-01-04T01:48:29.465Z,97.35
2023-01-04T01:51:01.292Z,97.33
2023-01-04T01:53:30.289Z,97.25
2023-01-04T01:55:58.330Z,97.74
2023-01-04T01:58:47.768Z,97.78
2023-01-04T02:01:14.517Z,97.67
2023-01-04T02:03:43.491Z,97.81
2023-01-04T02:06:19.159Z,97.98
2023-01-04T02:08:46.532Z,97.92
2023-01-04T02:11:13.073Z,97.69
2023-01-04T02:13:58.814Z,97.93
2023-01-04T02:16:46.575Z,97.91
2023-01-04T02:19:18.904Z,98.19
2023-01-04T02:22:00.148Z,98.10
2023-01-04T02:25:07.410Z,98.18
2023-01-04T02:27:55.362Z,98.50
2023-01-04T02:30:30.967Z,98.24
2023-01-04T02:33:15.737Z,98.30
2023-01-04T02:35:55.226Z,98.79
2023-01-04T02:38:37.061Z,98.82
2023-01-04T02:41:28.180Z,98.54
2023-01-04T02:44:32.189Z,98.54
2023-01-04T02:47:04.663Z,98.72
2023-01-04T02:49:49.868Z,98.97
2023-01-04T02:52:20.323Z,98.72
2023-01-04T02:54:49.663Z,99.12
2023-01-04T02:57:28.057Z,98.78
2023-01-04T03:00:23.859Z,99.13
2023-01-04T03:03:26.532Z,99.18
2023-01-04T03:06:15.294Z,98.65
2023-01-04T03:09:00.023Z,98.91
2023-01-04T03:11:59.721Z,99.04
2023-01-04T03:14:34.788Z,98.92
2023-01-04T03:17:07.912Z,98.98
2023-01-04T03:19:52.070Z,98.99
2023-01-04T03:22:59.139Z,99.09
2023-01-04T03:25:52.870Z,99.05
2023-01-04T03:28:41.907Z,99.11
2023-01-04T03:31:43.919Z,99.35
2023-01-04T03:34:31.528Z,99.10
2023-01-04T03:37:28.167Z,99.60
2023-01-04T03:40:46.195Z,99.34
2023-01-04T03:43:46.106Z,99.56
2023-01-04T03:46:46.396Z,99.62
2023-01-04T03:49:44.939Z,99.57
2023-01-04T03:52:14.440Z,99.68
2023-01-04T03:54:49.357Z,99.96
2023-01-04T03:57:17.424Z,99.65
2023-01-04T03:59:53.888Z,100.00
2023-01-04T04:02:28.314Z,99.81
2023-01-04T04:05:13.589Z,100.00
2023-01-04T04:07:58.451Z,100.00
2023-01-04T04:10:25.047Z,99.90
2023-01-04T04:12:52.406Z,100.00
2023-01-04T04:15:19.005Z,100.00
2023-01-04T04:17:45.561Z,100.00
2023-01-04T04:20:13.116Z,100.00
2023-01-04T04:22:40.546Z,100.00
2023-01-04T04:25:10.077Z,100.00
2023-01-04T04:27:36.576Z,100.00
2023-01-04T04:30:03.837Z,100.00
2023-01-04T04:32:32.738Z,100.00
2023-01-04T04:34:59.288Z,100.00
2023-01-04T04:37:30.342Z,100.00
2023-01-04T04:39:59.409Z,100.00
2023-01-04T04:42:26.018Z,100.00
2023-01-04T04:44:52.591Z,100.00
2023-01-04T04:47:19.441Z,100.00
2023-01-04T04:49:45.987Z,100.00
2023-01-04T04:52:12.513Z,100.00
2023-01-04T04:54:39.110Z,100.00
2023-01-04T04:57:06.389Z,100.00
2023-01-04T04:59:32.989Z,100.00
2023-01-04T05:01:59.810Z,100.00
2023-01-04T05:04:31.355Z,100.00
2023-01-04T05:07:00.237Z,100.00
2023-01-04T05:09:26.841Z,100.00
2023-01-04T05:12:12.040Z,100.00
2023-01-04T05:14:40.888Z,100.00
2023-01-04T05:17:07.514Z,100.00
2023-01-04T05:19:34.061Z,100.00
2023-01-04T05:22:00.631Z,100.00
2023-01-04T05:24:27.240Z,100.00
2023-01-04T05:26:53.804Z,100.00
2023-01-04T05:29:38.922Z,100.00
2023-01-04T05:32:05.839Z,100.00
2023-01-04T05:34:34.900Z,100.00
2023-01-04T05:37:01.610Z,100.00
2023-01-04T05:39:28.191Z,100.00
2023-01-04T05:42:13.332Z,100.00
2023-01-04T05:44:39.838Z,100.00
2023-01-04T05:47:14.699Z,100.00
2023-01-04T05:49:41.750Z,100.00
2023-01-04T05:52:08.337Z,100.00
2023-01-04T05:54:34.895Z,100.00
2023-01-04T05:57:03.710Z,100.00
2023-01-04T05:59:34.373Z,100.00
2023-01-04T06:02:07.133Z,100.00
2023-01-04T06:04:36.772Z,100.00
2023-01-04T06:07:03.287Z,100.00
2023-01-04T06:09:29.873Z,100.00
2023-01-04T06:11:58.778Z,100.00
2023-01-04T06:14:25.324Z,100.00
2023-01-04T06:16:52.016Z,100.00
2023-01-04T06:19:20.931Z,100.00
2023-01-04T06:21:47.594Z,100.00
2023-01-04T06:24:14.228Z,100.00
2023-01-04T06:26:40.796Z,100.00
2023-01-04T06:29:07.428Z,100.00
2023-01-04T06:31:34.048Z,100.00
2023-01-04T06:34:01.020Z,100.00
2023-01-04T06:36:27.830Z,100.00
2023-01-04T06:38:59.275Z,100.00
2023-01-04T06:41:27.045Z,100.00
2023-01-04T06:43:53.660Z,100.00
2023-01-04T06:46:20.601Z,100.00
2023-01-04T06:48:50.074Z,100.00
2023-01-04T06:51:16.596Z,100.00
2023-01-04T06:53:43.192Z,100.00
2023-01-04T06:56:09.781Z,100.00
2023-01-04T06:58:36.777Z,100.00
2023-01-04T07:01:03.765Z,100.00
2023-01-04T07:03:30.486Z,100.00
2023-01-04T07:05:57.407Z,100.00
2023-01-04T07:08:24.035Z,100.00
2023-01-04T07:10:51.451Z,100.00
2023-01-04T07:13:18.015Z,100.00
2023-01-04T07:15:44.625Z,100.00
2023-01-04T07:18:11.787Z,100.00
2023-01-04T07:20:38.909Z,100.00
2023-01-04T07:23:06.733Z,100.00
2023-01-04T07:25:33.408Z,100.00
2023-01-04T07:28:00.159Z,100.00
2023-01-04T07:30:26.766Z,100.00
2023-01-04T07:32:54.400Z,100.00
2023-01-04T07:35:21.805Z,100.00
2023-01-04T07:37:53.795Z,100.00
2023-01-04T07:40:24.339Z,100.00
2023-01-04T07:42:58.405Z,100.00
2023-01-04T07:45:25.605Z,100.00
2023-01-04T07:47:52.141Z,100.00
2023-01-04T07:50:18.700Z,100.00
2023-01-04T07:52:47.779Z,100.00
2023-01-04T07:55:16.572Z,100.00
2023-01-04T07:57:43.121Z,100.00
2023-01-04T08:00:11.508Z,100.00
2023-01-04T08:02:40.521Z,100.00
2023-01-04T08:05:07.523Z,100.00
2023-01-04T08:07:34.136Z,100.00
2023-01-04T08:10:01.809Z,100.00
2023-01-04T08:12:30.880Z,100.00
2023-01-04T08:14:57.529Z,100.00
2023-01-04T08:17:24.123Z,100.00
2023-01-04T08:19:50.706Z,100.00
2023-01-04T08:22:20.264Z,100.00
2023-01-04T08:24:46.888Z,100.00
2023-01-04T08:27:13.507Z,100.00
2023-01-04T08:29:40.075Z,100.00
2023-01-04T08:32:07.099Z,100.00
2023-01-04T08:34:33.660Z,100.00
2023-01-04T08:37:00.212Z,100.00
2023-01-04T08:39:29.563Z,100.00
2023-01-04T08:41:58.947Z,100.00
2023-01-04T08:44:28.992Z,100.00
2023-01-04T08:46:55.840Z,100.00
2023-01-04T08:49:22.940Z,100.00
2023-01-04T08:51:49.731Z,100.00
2023-01-04T08:54:16.635Z,99.99
2023-01-04T08:56:44.134Z,100.00
2023-01-04T08:59:12.673Z,100.00
2023-01-04T09:01:39.998Z,100.00
2023-01-04T09:04:07.195Z,100.00
2023-01-04T09:06:34.316Z,100.00
2023-01-04T09:09:00.960Z,100.00
2023-01-04T09:11:27.639Z,100.00
2023-01-04T09:13:59.739Z,100.00
2023-01-04T09:16:33.721Z,100.00
2023-01-04T09:19:00.470Z,100.00
2023-01-04T09:21:27.243Z,100.00
2023-01-04T09:23:57.369Z,100.00
2023-01-04T09:26:24.590Z,100.00
2023-01-04T09:28:55.844Z,100.00
2023-01-04T09:31:25.528Z,100.00
2023-01-04T09:36:41.741Z,100.00
2023-01-04T09:39:10.749Z,100.00
2023-01-04T09:41:49.823Z,100.00
2023-01-04T09:44:54.507Z,100.00
2023-01-04T09:47:19.954Z,100.00
2023-01-04T09:50:00.162Z,100.00
2023-01-04T09:53:09.288Z,100.00
2023-01-04T09:55:41.344Z,100.00
2023-01-04T09:58:27.018Z,100.00
2023-01-04T10:01:21.779Z,100.00
2023-01-04T10:04:33.928Z,100.00
2023-01-04T10:07:05.132Z,100.00
2023-01-04T10:09:32.322Z,100.00
2023-01-04T10:12:13.849Z,100.00
2023-01-04T10:14:46.359Z,100.00
2023-01-04T10:17:55.240Z,100.00
2023-01-04T10:23:47.850Z,100.00
2023-01-04T10:26:18.912Z,100.00
2023-01-04T10:29:07.831Z,100.00
2023-01-04T10:31:54.965Z,100.00
2023-01-04T10:34:28.151Z,100.00
2023-01-04T10:37:04.353Z,100.00
2023-01-04T10:39:35.949Z,100.00
2023-01-04T10:42:30.421Z,100.00
2023-01-04T10:45:45.295Z,100.00
2023-01-04T10:48:38.705Z,100.00
2023-01-04T10:51:10.306Z,100.00
2023-01-04T10:53:55.267Z,100.00
2023-01-04T10:56:33.340Z,100.00
2023-01-04T10:59:08.467Z,100.00
2023-01-04T11:01:48.160Z,100.00
2023-01-04T11:04:39.951Z,100.00
2023-01-04T11:07:20.587Z,100.00
2023-01-04T11:10:23.999Z,100.00
2023-01-04T11:12:50.660Z,100.00
2023-01-04T11:15:17.292Z,100.00
2023-01-04T11:17:45.538Z,100.00
2023-01-04T11:20:12.289Z,100.00
2023-01-04T11:22:45.014Z,100.00
2023-01-04T11:25:35.923Z,100.00
2023-01-04T11:28:15.985Z,100.00
2023-01-04T11:30:48.769Z,100.00
2023-01-04T11:33:22.742Z,100.00
2023-01-04T11:35:55.784Z,100.00
2023-01-04T11:38:25.477Z,100.00
2023-01-04T11:41:01.902Z,100.00
2023-01-04T11:43:33.289Z,100.00
2023-01-04T11:46:02.968Z,100.00
2023-01-04T11:48:44.633Z,100.00
2023-01-04T11:51:26.798Z,100.00
2023-01-04T11:54:01.531Z,100.00
2023-01-04T11:56:30.699Z,100.00
2023-01-04T11:59:17.723Z,100.00
2023-01-04T12:01:51.743Z,100.00
2023-01-04T12:04:27.848Z,100.00
2023-01-04T12:06:56.859Z,100.00
2023-01-04T12:09:23.724Z,100.00
2023-01-04T12:11:52.919Z,100.00
2023-01-04T12:14:36.503Z,100.00
2023-01-04T12:17:15.355Z,100.00
2023-01-04T12:19:43.775Z,100.00
2023-01-04T12:22:35.947Z,100.00
2023-01-04T12:25:06.565Z,100.00
2023-01-04T12:27:34.041Z,100.00
2023-01-04T12:30:03.276Z,100.00
2023-01-04T12:32:32.031Z,100.00
2023-01-04T12:35:01.023Z,100.00
2023-01-04T12:37:42.700Z,100.00
2023-01-04T12:40:46.602Z,100.00
2023-01-04T12:43:16.167Z,100.00
2023-01-04T12:45:48.336Z,100.00
2023-01-04T12:48:45.962Z,100.00
2023-01-04T12:51:35.321Z,100.00
2023-01-04T12:54:06.095Z,100.00
2023-01-04T12:57:10.666Z,100.00
2023-01-04T12:59:39.544Z,100.00
2023-01-04T13:02:17.673Z,100.00
2023-01-04T13:04:44.850Z,100.00
2023-01-04T13:07:19.428Z,100.00
2023-01-04T13:09:57.727Z,100.00
2023-01-04T13:13:05.845Z,100.00
2023-01-04T13:15:45.682Z,100.00
2023-01-04T13:18:43.200Z,100.00
2023-01-04T13:21:23.148Z,100.00
2023-01-04T13:23:59.978Z,100.00
2023-01-04T13:26:36.174Z,100.00
2023-01-04T13:29:11.780Z,100.00
2023-01-04T13:31:59.752Z,100.00
2023-01-04T13:34:52.222Z,100.00
2023-01-04T13:37:27.577Z,100.00
2023-01-04T13:40:19.571Z,100.00
2023-01-04T13:42:49.600Z,100.00
2023-01-04T13:45:33.419Z,100.00
2023-01-04T13:48:03.184Z,100.00
2023-01-04T13:50:40.417Z,100.00
2023-01-04T13:53:17.623Z,100.00
2023-01-04T13:55:44.199Z,100.00
2023-01-04T13:58:21.899Z,100.00
2023-01-04T14:00:57.947Z,100.00
2023-01-04T14:03:32.714Z,100.00
2023-01-04T14:06:21.452Z,100.00
2023-01-04T14:09:17.925Z,100.00
2023-01-04T14:12:09.160Z,100.00
2023-01-04T14:14:45.121Z,100.00
2023-01-04T14:17:16.622Z,100.00
2023-01-04T14:19:58.461Z,100.00
2023-01-04T14:22:40.413Z,100.00
2023-01-04T14:25:38.150Z,100.00
2023-01-04T14:28:24.610Z,100.00
2023-01-04T14:30:56.640Z,100.00
2023-01-04T14:33:29.161Z,100.00
2023-01-04T14:36:10.930Z,100.00
2023-01-04T14:38:40.739Z,100.00
2023-01-04T14:41:16.004Z,100.00
2023-01-04T14:43:47.276Z,99.88
2023-01-04T14:46:13.947Z,99.89
2023-01-04T14:48:40.673Z,99.92
2023-01-04T14:51:07.911Z,99.72
2023-01-04T14:53:34.637Z,99.81
2023-01-04T14:56:01.227Z,99.82
2023-01-04T14:58:27.766Z,99.80
2023-01-04T15:00:56.705Z,99.64
2023-01-04T15:03:23.328Z,99.64
2023-01-04T15:05:49.917Z,99.29
2023-01-04T15:08:16.523Z,99.50
2023-01-04T15:10:43.038Z,99.40
2023-01-04T15:13:09.683Z,99.10
2023-01-04T15:15:38.799Z,99.37
2023-01-04T15:18:05.710Z,99.18
2023-01-04T15:20:32.359Z,99.46
2023-01-04T15:22:59.231Z,99.13
2023-01-04T15:25:27.228Z,99.17
2023-01-04T15:27:53.829Z,98.89
2023-01-04T15:30:26.227Z,98.91
2023-01-04T15:32:57.642Z,98.99
2023-01-04T15:35:24.452Z,98.93
2023-01-04T15:37:51.499Z,98.92
2023-01-04T15:40:21.069Z,98.89
2023-01-04T15:42:59.647Z,98.74
2023-01-04T15:45:35.558Z,98.65
2023-01-04T15:48:11.444Z,98.63
2023-01-04T15:50:40.536Z,98.54
2023-01-04T15:53:08.343Z,98.65
2023-01-04T15:55:37.136Z,98.69
2023-01-04T15:58:05.049Z,98.52
2023-01-04T16:00:32.793Z,98.41
2023-01-04T16:02:59.481Z,98.43
2023-01-04T16:05:28.384Z,97.37
2023-01-04T16:07:54.919Z,97.32
2023-01-04T16:10:21.627Z,97.49
2023-01-04T16:12:54.760Z,97.44
2023-01-04T16:15:24.168Z,97.44
2023-01-04T16:17:50.785Z,97.47
2023-01-04T16:20:20.743Z,97.28
2023-01-04T16:22:49.889Z,97.38
2023-01-04T16:25:18.692Z,97.18
2023-01-04T16:27:45.287Z,96.93
2023-01-04T16:30:13.703Z,96.69
2023-01-04T16:32:42.336Z,96.73
2023-01-04T16:35:10.004Z,96.89
2023-01-04T16:37:39.673Z,97.03
2023-01-04T16:40:08.526Z,97.01
2023-01-04T16:42:37.763Z,96.98
2023-01-04T16:45:07.760Z,96.76
2023-01-04T16:47:42.132Z,96.65
2023-01-04T16:50:10.014Z,96.87
2023-01-04T16:52:37.221Z,96.69
2023-01-04T16:55:04.727Z,96.86
2023-01-04T16:57:31.304Z,96.53
2023-01-04T16:59:58.079Z,96.58
2023-01-04T17:02:27.238Z,96.38
2023-01-04T17:04:59.628Z,96.02
2023-01-04T17:07:32.920Z,96.26
2023-01-04T17:10:01.210Z,96.08
2023-01-04T17:15:41.791Z,96.25
2023-01-04T17:18:01.311Z,95.18
2023-01-04T17:20:27.936Z,95.59
2023-01-04T17:22:54.509Z,95.54
2023-01-04T17:25:21.128Z,95.47
2023-01-04T17:27:47.768Z,95.10
2023-01-04T17:30:14.672Z,95.33
2023-01-04T17:32:41.305Z,95.28
2023-01-04T17:35:08.218Z,95.27
2023-01-04T17:37:34.807Z,95.19
2023-01-04T17:40:01.407Z,95.03
2023-01-04T17:42:27.917Z,94.96
2023-01-04T17:44:54.537Z,94.90
2023-01-04T17:47:21.160Z,94.76
2023-01-04T17:49:47.777Z,94.63
2023-01-04T17:52:20.325Z,94.55
2023-01-04T17:54:51.103Z,94.31
2023-01-04T17:57:17.627Z,94.35
2023-01-04T17:59:44.157Z,94.44
2023-01-04T18:02:11.342Z,94.36
2023-01-04T18:04:38.099Z,94.20
2023-01-04T18:07:04.722Z,93.79
2023-01-04T18:09:31.384Z,94.14
2023-01-04T18:11:57.946Z,93.95
2023-01-04T18:14:27.763Z,93.84
2023-01-04T18:16:58.217Z,93.68
2023-01-04T18:19:30.346Z,93.68
2023-01-04T18:21:57.607Z,93.43
2023-01-04T18:24:41.710Z,93.24
2023-01-04T18:27:22.721Z,93.36
2023-01-04T18:29:50.539Z,93.24
2023-01-04T18:32:19.915Z,92.95
2023-01-04T18:34:46.508Z,92.83
2023-01-04T18:37:13.947Z,92.89
2023-01-04T18:39:43.001Z,92.76
2023-01-04T18:42:09.582Z,92.54
2023-01-04T18:44:45.590Z,92.62
2023-01-04T18:47:14.687Z,92.43
2023-01-04T18:49:41.231Z,92.36
2023-01-04T18:52:12.544Z,92.60
2023-01-04T18:54:39.151Z,92.46
2023-01-04T18:57:05.849Z,92.32
2023-01-04T18:59:32.558Z,92.48
2023-01-04T19:02:01.684Z,92.22
2023-01-04T19:04:36.344Z,92.09
2023-01-04T19:07:02.896Z,92.21
2023-01-04T19:09:30.605Z,91.89
2023-01-04T19:11:57.302Z,91.75
2023-01-04T19:14:24.198Z,91.65
2023-01-04T19:16:53.055Z,91.89
2023-01-04T19:19:20.305Z,91.77
2023-01-04T19:21:46.905Z,91.48
2023-01-04T19:24:13.478Z,91.43
2023-01-04T19:26:42.963Z,91.32
2023-01-04T19:29:09.983Z,91.36
2023-01-04T19:31:38.698Z,90.99
2023-01-04T19:34:05.322Z,91.13
2023-01-04T19:36:31.911Z,91.03
2023-01-04T19:38:58.526Z,91.31
2023-01-04T19:41:33.569Z,90.95
2023-01-04T19:44:07.093Z,90.57
2023-01-04T19:46:34.478Z,90.65
2023-01-04T19:49:01.191Z,90.61
2023-01-04T19:51:32.536Z,90.52
2023-01-04T19:54:01.654Z,90.51
2023-01-04T19:56:28.227Z,90.30
2023-01-04T19:58:54.795Z,90.02
2023-01-04T20:01:23.234Z,90.32
2023-01-04T20:03:50.404Z,89.86
2023-01-04T20:06:17.829Z,89.68
2023-01-04T20:08:46.735Z,89.85
2023-01-04T20:11:13.323Z,89.63
2023-01-04T20:13:42.680Z,89.53
2023-01-04T20:16:11.536Z,89.60
2023-01-04T20:18:38.441Z,89.26
2023-01-04T20:21:14.244Z,89.23
2023-01-04T20:23:41.309Z,89.17
2023-01-04T20:26:11.615Z,89.14
2023-01-04T20:28:42.202Z,89.19
2023-01-04T20:31:10.677Z,89.03
2023-01-04T20:33:37.271Z,88.92
2023-01-04T20:36:11.282Z,88.55
2023-01-04T20:38:40.113Z,88.23
2023-01-04T20:41:16.204Z,88.63
2023-01-04T20:43:44.464Z,88.25
2023-01-04T20:46:22.457Z,87.85
2023-01-04T20:48:49.331Z,88.18
2023-01-04T20:51:19.661Z,88.11
2023-01-04T20:53:48.987Z,87.90
2023-01-04T20:56:19.920Z,88.30
2023-01-04T20:58:50.231Z,87.83
2023-01-04T21:01:18.676Z,88.14
2023-01-04T21:03:45.438Z,88.07
2023-01-04T21:06:14.433Z,87.78
2023-01-04T21:08:42.564Z,87.94
2023-01-04T21:11:11.586Z,87.85
2023-01-04T21:13:38.846Z,87.92
2023-01-04T21:16:05.851Z,88.08
2023-01-04T21:18:33.050Z,87.93
2023-01-04T21:21:04.019Z,87.83
2023-01-04T21:23:30.610Z,87.77
2023-01-04T21:25:57.416Z,87.63
2023-01-04T21:28:24.679Z,87.50
2023-01-04T21:30:51.380Z,87.36
2023-01-04T21:33:18.293Z,87.12
2023-01-04T21:35:45.277Z,86.94
2023-01-04T21:38:11.947Z,87.14
2023-01-04T21:40:40.315Z,87.12
2023-01-04T21:43:09.548Z,87.41
2023-01-04T21:45:39.796Z,87.22
2023-01-04T21:48:06.776Z,87.29
2023-01-04T21:50:33.818Z,87.41
2023-01-04T21:53:02.600Z,87.29
2023-01-04T21:55:34.167Z,87.29
2023-01-04T21:58:01.535Z,87.23
2023-01-04T22:00:28.541Z,87.40
2023-01-04T22:02:55.237Z,87.63
2023-01-04T22:05:22.850Z,87.63
2023-01-04T22:07:49.449Z,87.54
2023-01-04T22:10:16.234Z,87.60
2023-01-04T22:12:44.825Z,87.65
2023-01-04T22:15:11.519Z,87.65
2023-01-04T22:17:38.119Z,87.49
2023-01-04T22:20:05.083Z,87.58
2023-01-04T22:22:31.736Z,87.71
2023-01-04T22:25:00.941Z,87.96
2023-01-04T22:27:27.436Z,87.82
2023-01-04T22:29:54.049Z,88.11
2023-01-04T22:32:20.654Z,88.25
2023-01-04T22:34:47.178Z,88.41
2023-01-04T22:37:13.716Z,88.79
2023-01-04T22:39:40.308Z,88.78
2023-01-04T22:42:06.909Z,88.90
2023-01-04T22:44:33.528Z,89.07
2023-01-04T22:47:00.193Z,89.10
2023-01-04T22:49:29.154Z,89.09
2023-01-04T22:51:57.356Z,89.21
2023-01-04T22:54:24.033Z,89.12
2023-01-04T22:56:53.125Z,89.33
2023-01-04T22:59:23.122Z,89.50
2023-01-04T23:01:52.614Z,89.32
2023-01-04T23:04:22.214Z,89.27
2023-01-04T23:06:51.113Z,89.42
2023-01-04T23:09:18.892Z,89.63
2023-01-04T23:11:45.773Z,89.57
2023-01-04T23:14:16.908Z,89.61
2023-01-04T23:16:44.763Z,89.84
2023-01-04T23:19:12.912Z,89.31
2023-01-04T23:21:39.851Z,89.30
2023-01-04T23:24:07.051Z,89.31
2023-01-04T23:26:34.427Z,89.28
2023-01-04T23:29:06.249Z,89.31
2023-01-04T23:31:33.634Z,89.22
2023-01-04T23:34:05.348Z,88.97
2023-01-04T23:36:36.820Z,89.25
2023-01-04T23:39:07.228Z,89.28
2023-01-04T23:41:46.851Z,89.00
2023-01-04T23:44:15.000Z,89.17
2023-01-04T23:46:42.089Z,89.08
2023-01-04T23:49:08.983Z,88.75
2023-01-04T23:51:35.578Z,88.65
2023-01-04T23:54:02.137Z,88.75
2023-01-04T23:56:28.698Z,88.51
2023-01-04T23:58:57.564Z,88.64
